createdAt,value
2018-04-17T00:00:24.900Z,19.97
2018-04-17T00:02:53.349Z,19.13
2018-04-17T00:05:21.344Z,19.33
2018-04-17T00:07:48.922Z,18.60
2018-04-17T00:10:17.258Z,17.67
2018-04-17T00:12:44.943Z,17.10
2018-04-17T00:15:12.521Z,17.80
2018-04-17T00:17:40.104Z,18.33
2018-04-17T00:20:08.656Z,17.93
2018-04-17T00:22:36.219Z,17.50
2018-04-17T00:25:03.793Z,20.23
2018-04-17T00:27:31.494Z,17.53
2018-04-17T00:29:59.821Z,16.10
2018-04-17T00:32:27.397Z,16.70
2018-04-17T00:34:55.092Z,17.17
2018-04-17T00:37:23.428Z,17.37
2018-04-17T00:39:51.008Z,17.40
2018-04-17T00:42:18.719Z,18.97
2018-04-17T00:44:46.303Z,17.17
2018-04-17T00:47:13.874Z,19.60
2018-04-17T00:49:41.670Z,19.90
2018-04-17T00:52:09.247Z,21.43
2018-04-17T00:54:36.823Z,20.43
2018-04-17T00:57:04.559Z,22.73
2018-04-17T00:59:32.128Z,23.10
2018-04-17T01:01:59.712Z,22.87
2018-04-17T01:04:27.403Z,23.90
2018-04-17T01:06:55.730Z,25.23
2018-04-17T01:09:23.332Z,28.17
2018-04-17T01:11:50.933Z,30.33
2018-04-17T01:14:18.557Z,30.27
2018-04-17T01:16:46.102Z,32.90
2018-04-17T01:19:13.689Z,31.63
2018-04-17T01:21:41.261Z,32.83
2018-04-17T01:24:09.606Z,33.37
2018-04-17T01:26:37.285Z,34.47
2018-04-17T01:29:04.842Z,37.70
2018-04-17T01:31:32.401Z,35.93
2018-04-17T01:34:00.081Z,36.73
2018-04-17T01:36:27.645Z,38.23
2018-04-17T01:38:55.209Z,37.53
2018-04-17T01:41:22.889Z,38.10
2018-04-17T01:43:50.458Z,38.70
2018-04-17T01:46:18.014Z,39.67
2018-04-17T01:48:45.598Z,42.17
2018-04-17T01:51:14.017Z,40.73
2018-04-17T01:53:41.593Z,40.07
2018-04-17T01:56:09.206Z,39.03
2018-04-17T01:58:37.559Z,39.80
2018-04-17T02:01:05.111Z,37.87
2018-04-17T02:03:32.810Z,36.20
2018-04-17T02:06:00.366Z,35.97
2018-04-17T02:08:27.964Z,36.97
2018-04-17T02:10:56.411Z,37.33
2018-04-17T02:13:23.988Z,34.07
2018-04-17T02:15:51.545Z,32.93
2018-04-17T02:18:19.252Z,33.73
2018-04-17T02:20:46.819Z,36.67
2018-04-17T02:23:14.406Z,35.40
2018-04-17T02:25:42.006Z,37.20
2018-04-17T02:28:09.583Z,35.07
2018-04-17T02:30:37.146Z,38.37
2018-04-17T02:33:04.882Z,35.30
2018-04-17T02:35:32.451Z,36.80
2018-04-17T02:38:00.778Z,36.03
2018-04-17T02:40:29.236Z,37.93
2018-04-17T02:42:56.805Z,40.23
2018-04-17T02:45:24.384Z,38.07
2018-04-17T02:47:52.843Z,37.77
2018-04-17T02:50:20.470Z,37.03
2018-04-17T02:52:48.041Z,36.83
2018-04-17T02:55:15.723Z,35.00
2018-04-17T02:57:44.051Z,39.23
2018-04-17T03:00:12.389Z,41.60
2018-04-17T03:02:39.982Z,41.27
2018-04-17T03:05:07.571Z,45.07
2018-04-17T03:07:35.128Z,49.20
2018-04-17T03:10:03.695Z,43.20
2018-04-17T03:12:31.255Z,43.00
2018-04-17T03:14:58.829Z,38.20
2018-04-17T03:17:26.495Z,38.13
2018-04-17T03:19:54.056Z,35.17
2018-04-17T03:22:21.636Z,34.20
2018-04-17T03:24:50.134Z,39.87
2018-04-17T03:27:17.696Z,38.97
2018-04-17T03:29:45.268Z,32.77
2018-04-17T03:32:12.857Z,32.70
2018-04-17T03:34:40.417Z,31.03
2018-04-17T03:37:07.982Z,27.93
2018-04-17T03:39:35.653Z,26.23
2018-04-17T03:42:03.221Z,27.50
2018-04-17T03:44:30.788Z,28.20
2018-04-17T03:46:58.404Z,25.50
2018-04-17T03:49:26.738Z,27.17
2018-04-17T03:51:54.315Z,26.50
2018-04-17T03:54:22.104Z,25.87
2018-04-17T03:56:50.454Z,25.90
2018-04-17T03:59:18.058Z,27.00
2018-04-17T04:01:46.440Z,26.47
2018-04-17T04:04:14.786Z,27.73
2018-04-17T04:06:42.486Z,28.20
2018-04-17T04:09:10.927Z,31.73
2018-04-17T04:11:38.494Z,32.53
2018-04-17T04:14:06.070Z,36.40
2018-04-17T04:17:00.594Z,35.00
2018-04-17T04:19:40.767Z,36.00
2018-04-17T04:22:20.187Z,34.33
2018-04-17T04:24:59.758Z,38.57
2018-04-17T04:27:27.502Z,40.50
2018-04-17T04:29:56.019Z,38.47
2018-04-17T04:32:23.607Z,42.67
2018-04-17T04:34:51.283Z,44.37
2018-04-17T04:37:19.624Z,41.97
2018-04-17T04:39:47.203Z,43.47
2018-04-17T04:42:14.898Z,37.63
2018-04-17T04:44:42.463Z,40.60
2018-04-17T04:47:10.806Z,38.90
2018-04-17T04:49:38.492Z,35.90
2018-04-17T04:52:06.235Z,37.17
2018-04-17T04:54:33.781Z,38.27
2018-04-17T04:57:01.697Z,35.70
2018-04-17T04:59:29.375Z,37.17
2018-04-17T05:01:56.959Z,37.63
2018-04-17T05:04:25.547Z,36.27
2018-04-17T05:06:53.879Z,35.07
2018-04-17T05:09:21.485Z,35.63
2018-04-17T05:11:49.853Z,32.73
2018-04-17T05:14:17.443Z,36.23
2018-04-17T05:16:45.006Z,36.17
2018-04-17T05:19:13.582Z,34.57
2018-04-17T05:21:41.922Z,35.50
2018-04-17T05:24:09.491Z,35.13
2018-04-17T05:26:37.171Z,32.97
2018-04-17T05:29:04.741Z,33.73
2018-04-17T05:31:32.315Z,36.27
2018-04-17T05:34:00.053Z,32.67
2018-04-17T05:36:27.669Z,33.03
2018-04-17T05:38:56.029Z,34.13
2018-04-17T05:41:23.628Z,35.80
2018-04-17T05:43:51.211Z,35.23
2018-04-17T05:46:18.778Z,35.67
2018-04-17T05:48:46.406Z,38.17
2018-04-17T05:51:14.874Z,40.40
2018-04-17T05:53:43.249Z,39.53
2018-04-17T05:56:10.827Z,42.00
2018-04-17T05:58:38.442Z,43.83
2018-04-17T06:01:06.151Z,45.00
2018-04-17T06:03:33.746Z,44.20
2018-04-17T06:06:01.319Z,44.77
2018-04-17T06:08:29.133Z,45.97
2018-04-17T06:10:57.615Z,45.80
2018-04-17T06:13:25.182Z,47.43
2018-04-17T06:15:52.819Z,51.13
2018-04-17T06:18:20.416Z,49.20
2018-04-17T06:20:47.984Z,45.83
2018-04-17T06:23:15.720Z,49.40
2018-04-17T06:25:43.290Z,53.40
2018-04-17T06:28:10.841Z,47.57
2018-04-17T06:30:38.578Z,49.03
2018-04-17T06:33:06.913Z,49.17
2018-04-17T06:35:34.487Z,46.50
2018-04-17T06:38:03.084Z,46.20
2018-04-17T06:40:30.640Z,46.63
2018-04-17T06:42:58.213Z,49.60
2018-04-17T06:45:25.893Z,47.40
2018-04-17T06:47:54.244Z,45.23
2018-04-17T06:50:21.837Z,45.10
2018-04-17T06:52:50.273Z,45.90
2018-04-17T06:55:17.816Z,42.77
2018-04-17T06:57:45.384Z,42.77
2018-04-17T07:00:13.084Z,41.37
2018-04-17T07:02:40.675Z,45.53
2018-04-17T07:05:08.242Z,42.00
2018-04-17T07:07:35.928Z,40.27
2018-04-17T07:10:04.280Z,41.30
2018-04-17T07:12:31.936Z,36.47
2018-04-17T07:14:59.740Z,41.20
2018-04-17T07:17:28.074Z,38.57
2018-04-17T07:19:55.749Z,36.63
2018-04-17T07:22:23.338Z,36.97
2018-04-17T07:24:50.947Z,34.83
2018-04-17T07:27:18.520Z,34.93
2018-04-17T07:29:46.309Z,34.97
2018-04-17T07:32:13.896Z,33.20
2018-04-17T07:34:41.497Z,34.03
2018-04-17T07:37:09.961Z,33.10
2018-04-17T07:39:38.295Z,35.10
2018-04-17T07:42:05.854Z,34.00
2018-04-17T07:44:33.532Z,33.77
2018-04-17T07:47:12.930Z,32.93
2018-04-17T07:49:40.631Z,33.67
2018-04-17T07:52:08.218Z,32.43
2018-04-17T07:54:35.797Z,34.43
2018-04-17T07:57:03.510Z,33.57
2018-04-17T07:59:31.093Z,31.07
2018-04-17T08:01:58.664Z,32.07
2018-04-17T08:04:26.261Z,31.57
2018-04-17T08:06:53.844Z,31.40
2018-04-17T08:09:22.190Z,31.37
2018-04-17T08:11:49.868Z,31.47
2018-04-17T08:14:17.410Z,32.23
2018-04-17T08:16:45.033Z,34.13
2018-04-17T08:19:12.635Z,34.43
2018-04-17T08:21:40.221Z,31.07
2018-04-17T08:24:07.806Z,30.27
2018-04-17T08:26:36.154Z,33.37
2018-04-17T08:29:03.745Z,30.50
2018-04-17T08:31:32.089Z,32.30
2018-04-17T08:33:59.782Z,32.67
2018-04-17T08:36:27.340Z,29.63
2018-04-17T08:38:54.923Z,30.87
2018-04-17T08:41:23.392Z,33.33
2018-04-17T08:43:50.977Z,31.87
2018-04-17T08:46:19.320Z,40.90
2018-04-17T08:48:47.015Z,32.70
2018-04-17T08:51:15.375Z,32.40
2018-04-17T08:53:42.957Z,32.73
2018-04-17T08:56:10.720Z,32.60
2018-04-17T08:58:38.293Z,33.23
2018-04-17T09:01:05.889Z,30.83
2018-04-17T09:03:33.849Z,31.63
2018-04-17T09:06:01.493Z,31.47
2018-04-17T09:08:29.111Z,37.67
2018-04-17T09:10:56.870Z,30.53
2018-04-17T09:13:24.450Z,31.50
2018-04-17T09:15:52.031Z,30.77
2018-04-17T09:18:19.809Z,32.53
2018-04-17T09:20:47.369Z,31.27
2018-04-17T09:23:14.940Z,30.17
2018-04-17T09:25:42.615Z,30.37
2018-04-17T09:28:10.193Z,31.23
2018-04-17T09:30:37.785Z,29.27
2018-04-17T09:33:05.505Z,30.90
2018-04-17T09:35:33.179Z,28.37
2018-04-17T09:38:00.741Z,26.23
2018-04-17T09:40:28.415Z,28.57
2018-04-17T09:42:55.995Z,22.07
2018-04-17T09:45:24.344Z,19.17
2018-04-17T09:47:52.040Z,19.70
2018-04-17T09:50:20.383Z,19.57
2018-04-17T09:52:47.956Z,24.20
2018-04-17T09:55:15.553Z,22.73
2018-04-17T09:57:43.929Z,20.33
2018-04-17T10:00:11.524Z,19.50
2018-04-17T10:02:39.119Z,22.83
2018-04-17T10:05:06.817Z,22.57
2018-04-17T10:07:34.412Z,22.13
2018-04-17T10:10:02.909Z,23.87
2018-04-17T10:12:30.549Z,24.83
2018-04-17T10:14:59.078Z,22.50
2018-04-17T10:17:26.832Z,23.93
2018-04-17T10:19:54.525Z,22.23
2018-04-17T10:22:22.283Z,21.87
2018-04-17T10:24:49.998Z,24.23
2018-04-17T10:27:17.619Z,19.87
2018-04-17T10:29:45.248Z,20.60
2018-04-17T10:32:12.957Z,19.63
2018-04-17T10:34:40.529Z,16.47
2018-04-17T10:37:08.120Z,18.03
2018-04-17T10:39:35.741Z,17.10
2018-04-17T10:42:03.352Z,18.90
2018-04-17T10:44:30.930Z,15.17
2018-04-17T10:46:59.411Z,13.33
2018-04-17T10:49:27.740Z,15.27
2018-04-17T10:51:55.379Z,14.23
2018-04-17T10:54:23.103Z,14.30
2018-04-17T10:56:51.458Z,15.63
2018-04-17T10:59:19.052Z,13.23
2018-04-17T11:01:46.683Z,17.43
2018-04-17T11:04:14.266Z,10.57
2018-04-17T11:06:41.818Z,9.73
2018-04-17T11:09:09.831Z,9.33
2018-04-17T11:11:38.184Z,11.73
2018-04-17T11:14:05.767Z,9.40
2018-04-17T11:16:33.378Z,9.93
2018-04-17T11:19:00.959Z,9.53
2018-04-17T11:21:28.557Z,13.33
2018-04-17T11:23:56.147Z,12.30
2018-04-17T11:26:24.491Z,6.93
2018-04-17T11:28:52.051Z,6.23
2018-04-17T11:31:19.752Z,7.07
2018-04-17T11:33:47.318Z,7.00
2018-04-17T11:36:14.894Z,6.30
2018-04-17T11:38:43.354Z,12.10
2018-04-17T11:41:10.935Z,7.00
2018-04-17T11:43:39.258Z,7.00
2018-04-17T11:46:06.945Z,6.90
2018-04-17T11:48:34.515Z,8.70
2018-04-17T11:51:02.079Z,7.37
2018-04-17T11:53:29.766Z,7.27
2018-04-17T11:55:57.326Z,6.40
2018-04-17T11:58:24.883Z,7.00
2018-04-17T12:00:52.575Z,6.93
2018-04-17T12:03:20.156Z,7.00
2018-04-17T12:05:48.491Z,6.20
2018-04-17T12:08:16.130Z,7.37
2018-04-17T12:10:43.721Z,8.13
2018-04-17T12:13:12.171Z,8.93
2018-04-17T12:15:39.947Z,6.20
2018-04-17T12:18:07.516Z,8.80
2018-04-17T12:20:35.140Z,9.43
2018-04-17T12:23:03.508Z,7.57
2018-04-17T12:25:31.845Z,9.90
2018-04-17T12:27:59.470Z,6.77
2018-04-17T12:30:27.935Z,9.23
2018-04-17T12:32:55.508Z,8.77
2018-04-17T12:35:23.908Z,7.40
2018-04-17T12:37:52.477Z,6.80
2018-04-17T12:40:20.054Z,6.87
2018-04-17T12:42:48.377Z,6.53
2018-04-17T12:45:16.056Z,6.77
2018-04-17T12:47:43.635Z,8.17
2018-04-17T12:50:11.205Z,7.63
2018-04-17T12:52:39.027Z,9.00
2018-04-17T12:55:06.615Z,10.77
2018-04-17T12:57:34.948Z,7.13
2018-04-17T13:00:03.445Z,7.87
2018-04-17T13:02:31.024Z,9.20
2018-04-17T13:04:59.959Z,10.43
2018-04-17T13:07:27.562Z,8.43
2018-04-17T13:09:55.933Z,10.70
2018-04-17T13:12:24.429Z,9.03
2018-04-17T13:14:52.095Z,7.53
2018-04-17T13:17:20.443Z,8.80
2018-04-17T13:19:49.077Z,7.23
2018-04-17T13:22:16.637Z,9.97
2018-04-17T13:24:45.039Z,9.73
2018-04-17T13:27:12.612Z,8.63
2018-04-17T13:29:40.183Z,9.80
2018-04-17T13:32:09.440Z,9.83
2018-04-17T13:34:37.808Z,8.17
2018-04-17T13:37:05.435Z,10.57
2018-04-17T13:39:33.199Z,10.70
2018-04-17T13:42:00.800Z,8.00
2018-04-17T13:44:28.483Z,10.63
2018-04-17T13:46:56.873Z,9.60
2018-04-17T13:49:25.230Z,8.67
2018-04-17T13:51:52.791Z,7.63
2018-04-17T13:54:20.449Z,7.77
2018-04-17T13:56:48.079Z,9.00
2018-04-17T13:59:15.721Z,9.17
2018-04-17T14:01:44.215Z,11.33
2018-04-17T14:04:11.850Z,8.60
2018-04-17T14:06:40.272Z,11.53
2018-04-17T14:09:07.889Z,8.53
2018-04-17T14:11:36.056Z,8.33
2018-04-17T14:14:03.730Z,9.03
2018-04-17T14:16:31.452Z,9.93
2018-04-17T14:18:59.047Z,7.83
2018-04-17T14:21:26.673Z,7.77
2018-04-17T14:23:54.515Z,7.50
2018-04-17T14:26:22.903Z,10.27
2018-04-17T14:28:50.636Z,10.23
2018-04-17T14:31:18.273Z,11.13
2018-04-17T14:33:45.901Z,9.97
2018-04-17T14:36:13.507Z,8.80
2018-04-17T14:38:41.416Z,10.27
2018-04-17T14:41:08.994Z,9.13
2018-04-17T14:43:36.598Z,8.47
2018-04-17T14:46:04.331Z,9.57
2018-04-17T14:48:31.960Z,8.03
2018-04-17T14:50:59.649Z,9.10
2018-04-17T14:53:27.368Z,12.03
2018-04-17T14:55:54.995Z,8.77
2018-04-17T14:58:22.587Z,8.57
2018-04-17T15:00:51.132Z,7.80
2018-04-17T15:03:18.777Z,7.63
2018-04-17T15:05:46.417Z,9.00
2018-04-17T15:08:14.179Z,8.13
2018-04-17T15:10:59.551Z,10.00
2018-04-17T15:13:27.172Z,8.57
2018-04-17T15:15:54.815Z,11.13
2018-04-17T15:18:22.389Z,8.97
2018-04-17T15:20:50.003Z,8.33
2018-04-17T15:23:17.570Z,8.60
2018-04-17T15:25:45.147Z,8.90
2018-04-17T15:28:12.896Z,9.07
2018-04-17T15:30:41.257Z,11.33
2018-04-17T15:33:08.909Z,8.30
2018-04-17T15:35:36.637Z,8.00
2018-04-17T15:38:04.226Z,9.43
2018-04-17T15:40:32.617Z,10.07
2018-04-17T15:43:01.701Z,7.50
2018-04-17T15:45:29.239Z,7.37
2018-04-17T15:47:56.769Z,7.53
2018-04-17T15:50:25.227Z,14.83
2018-04-17T15:52:52.764Z,9.20
2018-04-17T15:55:20.361Z,7.53
2018-04-17T15:57:48.050Z,7.03
2018-04-17T16:00:15.682Z,8.60
2018-04-17T16:02:43.207Z,7.40
2018-04-17T16:05:10.939Z,10.83
2018-04-17T16:07:38.546Z,10.00
2018-04-17T16:10:06.225Z,9.57
2018-04-17T16:12:34.004Z,8.30
2018-04-17T16:15:01.577Z,9.87
2018-04-17T16:17:29.106Z,8.80
2018-04-17T16:19:56.954Z,9.17
2018-04-17T16:22:25.369Z,10.33
2018-04-17T16:24:52.928Z,8.30
2018-04-17T16:27:20.695Z,8.70
2018-04-17T16:29:49.170Z,8.90
2018-04-17T16:32:16.782Z,10.80
2018-04-17T16:34:44.449Z,11.40
2018-04-17T16:37:11.988Z,9.43
2018-04-17T16:39:40.283Z,9.10
2018-04-17T16:42:07.942Z,9.00
2018-04-17T16:44:36.265Z,9.90
2018-04-17T16:47:03.819Z,9.47
2018-04-17T16:49:31.523Z,8.20
2018-04-17T16:51:59.822Z,8.20
2018-04-17T16:54:28.294Z,8.00
2018-04-17T16:56:55.867Z,10.83
2018-04-17T16:59:23.446Z,8.80
2018-04-17T17:01:51.809Z,9.73
2018-04-17T17:04:19.353Z,10.37
2018-04-17T17:06:47.737Z,11.53
2018-04-17T17:09:16.127Z,9.40
2018-04-17T17:11:44.445Z,10.87
2018-04-17T17:14:12.027Z,10.37
2018-04-17T17:16:39.709Z,10.23
2018-04-17T17:19:07.277Z,9.70
2018-04-17T17:21:34.827Z,10.33
2018-04-17T17:24:02.543Z,10.87
2018-04-17T17:26:30.098Z,11.27
2018-04-17T17:28:58.439Z,9.60
2018-04-17T17:31:26.126Z,13.60
2018-04-17T17:33:54.470Z,12.67
2018-04-17T17:36:22.072Z,13.97
2018-04-17T17:38:49.819Z,13.50
2018-04-17T17:41:17.360Z,13.53
2018-04-17T17:43:44.924Z,13.07
2018-04-17T17:46:12.673Z,15.43
2018-04-17T17:48:40.314Z,17.07
2018-04-17T17:51:08.831Z,16.27
2018-04-17T17:53:36.628Z,17.13
2018-04-17T17:56:04.183Z,14.93
2018-04-17T17:58:31.739Z,17.43
2018-04-17T18:00:59.411Z,15.17
2018-04-17T18:03:27.120Z,17.77
2018-04-17T18:05:54.689Z,15.53
2018-04-17T18:08:22.400Z,19.10
2018-04-17T18:10:49.958Z,17.03
2018-04-17T18:13:17.543Z,12.13
2018-04-17T18:15:45.167Z,13.60
2018-04-17T18:18:12.864Z,12.97
2018-04-17T18:20:40.427Z,13.80
2018-04-17T18:23:08.039Z,16.03
2018-04-17T18:25:35.585Z,17.83
2018-04-17T18:28:03.143Z,14.90
2018-04-17T18:30:30.878Z,15.97
2018-04-17T18:32:58.461Z,15.37
2018-04-17T18:35:26.160Z,14.20
2018-04-17T18:37:53.966Z,22.90
2018-04-17T18:40:21.572Z,16.87
2018-04-17T18:42:49.158Z,17.30
2018-04-17T18:45:16.886Z,17.63
2018-04-17T18:47:44.455Z,35.03
2018-04-17T18:50:12.046Z,41.13
2018-04-17T18:52:39.814Z,44.50
2018-04-17T18:55:07.364Z,95.70
2018-04-17T18:57:34.968Z,96.93
2018-04-17T19:00:03.471Z,115.07
2018-04-17T19:02:31.840Z,129.70
2018-04-17T19:05:00.279Z,113.03
2018-04-17T19:07:27.840Z,105.93
2018-04-17T19:09:55.414Z,91.97
2018-04-17T19:12:23.108Z,92.83
2018-04-17T19:14:50.687Z,79.60
2018-04-17T19:17:18.281Z,81.10
2018-04-17T19:19:45.884Z,77.60
2018-04-17T19:22:13.450Z,74.10
2018-04-17T19:24:40.996Z,76.17
2018-04-17T19:27:08.744Z,79.40
2018-04-17T19:29:36.304Z,79.70
2018-04-17T19:32:03.881Z,68.80
2018-04-17T19:34:31.497Z,61.30
2018-04-17T19:36:59.120Z,51.77
2018-04-17T19:39:26.681Z,55.27
2018-04-17T19:41:54.337Z,48.43
2018-04-17T19:44:21.955Z,41.93
2018-04-17T19:46:49.542Z,38.80
2018-04-17T19:49:17.373Z,35.80
2018-04-17T19:51:45.694Z,35.97
2018-04-17T19:54:14.118Z,31.77
2018-04-17T19:56:41.710Z,30.47
2018-04-17T19:59:09.315Z,28.77
2018-04-17T20:01:37.197Z,27.80
2018-04-17T20:04:04.772Z,26.53
2018-04-17T20:06:32.537Z,27.40
2018-04-17T20:09:00.141Z,28.20
2018-04-17T20:11:27.698Z,22.87
2018-04-17T20:13:55.291Z,23.97
2018-04-17T20:16:23.848Z,22.97
2018-04-17T20:18:51.423Z,23.53
2018-04-17T20:21:18.975Z,23.73
2018-04-17T20:23:46.545Z,24.50
2018-04-17T20:26:14.170Z,25.80
2018-04-17T20:28:41.833Z,24.77
2018-04-17T20:31:09.524Z,27.63
2018-04-17T20:33:37.198Z,28.60
2018-04-17T20:36:04.780Z,24.30
2018-04-17T20:38:32.709Z,23.67
2018-04-17T20:41:00.267Z,30.53
2018-04-17T20:43:27.811Z,30.93
2018-04-17T20:45:56.230Z,30.87
2018-04-17T20:48:23.943Z,26.37
2018-04-17T20:50:51.477Z,29.77
2018-04-17T20:53:19.116Z,28.10
2018-04-17T20:55:46.680Z,31.40
2018-04-17T20:58:14.269Z,28.53
2018-04-17T21:00:42.759Z,28.13
2018-04-17T21:03:10.273Z,30.13
2018-04-17T21:05:37.873Z,36.37
2018-04-17T21:08:05.476Z,55.17
2018-04-17T21:10:33.097Z,56.27
2018-04-17T21:13:00.688Z,50.83
2018-04-17T21:15:29.209Z,45.53
2018-04-17T21:17:56.759Z,47.53
2018-04-17T21:20:25.147Z,42.50
2018-04-17T21:22:53.669Z,41.80
2018-04-17T21:25:21.182Z,44.40
2018-04-17T21:27:48.738Z,58.03
2018-04-17T21:30:16.313Z,59.67
2018-04-17T21:32:44.628Z,68.87
2018-04-17T21:35:12.150Z,65.07
2018-04-17T21:37:39.878Z,65.83
2018-04-17T21:40:07.464Z,66.00
2018-04-17T21:42:35.019Z,69.43
2018-04-17T21:45:02.700Z,58.13
2018-04-17T21:47:30.245Z,77.10
2018-04-17T21:49:57.854Z,60.30
2018-04-17T21:52:25.407Z,54.87
2018-04-17T21:54:52.950Z,59.33
2018-04-17T21:57:21.308Z,43.47
2018-04-17T21:59:49.571Z,45.30
2018-04-17T22:02:17.168Z,47.93
2018-04-17T22:04:44.692Z,38.40
2018-04-17T22:07:13.211Z,30.90
2018-04-17T22:09:40.769Z,29.77
2018-04-17T22:12:08.301Z,29.30
2018-04-17T22:14:36.804Z,23.90
2018-04-17T22:17:04.342Z,24.07
2018-04-17T22:19:32.675Z,27.43
2018-04-17T22:22:00.368Z,26.17
2018-04-17T22:24:27.916Z,25.63
2018-04-17T22:26:55.456Z,24.07
2018-04-17T22:29:23.107Z,24.53
2018-04-17T22:31:50.626Z,25.97
2018-04-17T22:34:35.825Z,22.20
2018-04-17T22:37:03.402Z,25.27
2018-04-17T22:39:30.979Z,25.30
2018-04-17T22:41:58.880Z,32.40
2018-04-17T22:44:26.832Z,27.20
2018-04-17T22:46:54.342Z,29.87
2018-04-17T22:49:22.035Z,32.47
2018-04-17T22:51:49.592Z,42.27
2018-04-17T22:54:17.876Z,41.13
2018-04-17T22:56:46.193Z,38.73
2018-04-17T22:59:13.722Z,44.20
2018-04-17T23:01:42.019Z,39.87
2018-04-17T23:04:09.786Z,39.07
2018-04-17T23:06:37.323Z,44.67
2018-04-17T23:09:06.558Z,41.97
2018-04-17T23:11:34.206Z,37.77
2018-04-17T23:14:01.726Z,39.17
2018-04-17T23:16:29.256Z,37.10
2018-04-17T23:18:56.999Z,39.27
2018-04-17T23:21:24.536Z,41.73
2018-04-17T23:23:52.068Z,41.17
2018-04-17T23:26:19.621Z,37.40
2018-04-17T23:28:47.140Z,41.07
2018-04-17T23:31:15.423Z,42.07
2018-04-17T23:33:43.813Z,44.60
2018-04-17T23:36:12.097Z,43.60
2018-04-17T23:38:39.642Z,48.57
2018-04-17T23:41:08.149Z,42.90
2018-04-17T23:43:35.667Z,46.70
2018-04-17T23:46:03.209Z,43.83
2018-04-17T23:48:30.753Z,51.83
2018-04-17T23:50:58.280Z,51.57
2018-04-17T23:53:25.812Z,49.07
2018-04-17T23:55:53.452Z,53.43
2018-04-17T23:58:20.975Z,63.33
